createdAt,value
2022-10-18T00:00:07.274Z,9.73
2022-10-18T00:02:54.186Z,9.79
2022-10-18T00:05:20.965Z,9.87
2022-10-18T00:07:47.916Z,9.83
2022-10-18T00:10:14.859Z,9.78
2022-10-18T00:12:41.874Z,9.67
2022-10-18T00:15:10.335Z,9.68
2022-10-18T00:17:38.908Z,9.65
2022-10-18T00:20:07.128Z,9.59
2022-10-18T00:22:36.621Z,9.54
2022-10-18T00:25:03.923Z,9.52
2022-10-18T00:27:31.303Z,9.47
2022-10-18T00:29:58.224Z,9.46
2022-10-18T00:32:25.582Z,9.57
2022-10-18T00:34:52.608Z,9.45
2022-10-18T00:37:19.608Z,9.35
2022-10-18T00:39:46.634Z,9.34
2022-10-18T00:42:18.268Z,9.30
2022-10-18T00:44:45.000Z,9.31
2022-10-18T00:47:14.555Z,9.33
2022-10-18T00:49:44.939Z,9.43
2022-10-18T00:52:17.282Z,9.30
2022-10-18T00:54:46.230Z,9.29
2022-10-18T00:57:14.036Z,9.30
2022-10-18T00:59:42.571Z,9.26
2022-10-18T01:02:10.176Z,9.25
2022-10-18T01:04:37.184Z,9.25
2022-10-18T01:07:29.121Z,9.24
2022-10-18T01:10:17.325Z,9.21
2022-10-18T01:13:08.600Z,9.10
2022-10-18T01:15:50.565Z,9.20
2022-10-18T01:18:53.586Z,9.22
2022-10-18T01:21:29.284Z,9.15
2022-10-18T01:24:15.181Z,9.06
2022-10-18T01:27:15.846Z,9.04
2022-10-18T01:29:54.884Z,9.01
2022-10-18T01:32:29.031Z,9.14
2022-10-18T01:35:04.980Z,9.07
2022-10-18T01:37:35.219Z,8.95
2022-10-18T01:40:06.685Z,8.87
2022-10-18T01:42:34.335Z,8.93
2022-10-18T01:45:03.650Z,8.84
2022-10-18T01:47:31.557Z,8.87
2022-10-18T01:50:00.624Z,8.91
2022-10-18T01:52:27.696Z,8.90
2022-10-18T01:54:55.987Z,8.91
2022-10-18T01:57:28.544Z,8.84
2022-10-18T01:59:58.446Z,8.92
2022-10-18T02:02:40.262Z,8.87
2022-10-18T02:05:25.915Z,8.86
2022-10-18T02:08:23.161Z,8.86
2022-10-18T02:11:07.434Z,8.75
2022-10-18T02:13:42.023Z,8.70
2022-10-18T02:16:35.916Z,8.85
2022-10-18T02:19:09.064Z,8.83
2022-10-18T02:21:38.433Z,8.88
2022-10-18T02:24:06.938Z,8.86
2022-10-18T02:26:33.953Z,8.90
2022-10-18T02:29:00.695Z,8.82
2022-10-18T02:31:35.299Z,8.82
2022-10-18T02:34:22.359Z,8.74
2022-10-18T02:37:00.516Z,8.69
2022-10-18T02:39:31.497Z,8.82
2022-10-18T02:41:59.513Z,8.88
2022-10-18T02:44:26.540Z,8.71
2022-10-18T02:46:53.602Z,8.65
2022-10-18T02:49:20.320Z,8.61
2022-10-18T02:51:47.269Z,8.64
2022-10-18T02:54:14.002Z,8.67
2022-10-18T02:56:40.953Z,8.58
2022-10-18T02:59:08.224Z,8.51
2022-10-18T03:01:36.293Z,8.58
2022-10-18T03:04:04.445Z,8.52
2022-10-18T03:06:32.288Z,8.62
2022-10-18T03:08:59.149Z,8.59
2022-10-18T03:11:26.093Z,8.47
2022-10-18T03:13:52.804Z,8.47
2022-10-18T03:16:19.749Z,8.41
2022-10-18T03:18:46.667Z,8.41
2022-10-18T03:21:13.628Z,8.29
2022-10-18T03:23:42.238Z,8.37
2022-10-18T03:26:09.678Z,8.38
2022-10-18T03:28:36.495Z,8.31
2022-10-18T03:31:04.501Z,8.31
2022-10-18T03:33:32.712Z,8.30
2022-10-18T03:36:00.176Z,8.21
2022-10-18T03:38:27.222Z,8.20
2022-10-18T03:40:54.172Z,8.19
2022-10-18T03:43:20.951Z,8.21
2022-10-18T03:45:47.887Z,8.14
2022-10-18T03:48:14.819Z,8.23
2022-10-18T03:50:42.857Z,8.29
2022-10-18T03:53:10.487Z,8.23
2022-10-18T03:55:37.716Z,8.24
2022-10-18T03:58:04.638Z,8.23
2022-10-18T04:00:31.954Z,8.22
2022-10-18T04:02:58.719Z,8.22
2022-10-18T04:05:28.096Z,8.28
2022-10-18T04:07:55.109Z,8.34
2022-10-18T04:10:22.229Z,8.25
2022-10-18T04:12:48.994Z,8.24
2022-10-18T04:15:16.030Z,8.33
2022-10-18T04:17:42.813Z,8.21
2022-10-18T04:20:10.146Z,8.19
2022-10-18T04:22:36.921Z,8.28
2022-10-18T04:25:05.131Z,8.24
2022-10-18T04:27:32.449Z,8.24
2022-10-18T04:29:59.511Z,8.26
2022-10-18T04:32:29.483Z,8.22
2022-10-18T04:34:59.144Z,8.13
2022-10-18T04:37:25.939Z,8.17
2022-10-18T04:39:53.798Z,8.11
2022-10-18T04:42:24.343Z,8.11
2022-10-18T04:44:51.347Z,7.98
2022-10-18T04:47:18.277Z,7.96
2022-10-18T04:49:45.364Z,7.88
2022-10-18T04:52:12.151Z,7.91
2022-10-18T04:54:39.102Z,7.98
2022-10-18T04:57:05.908Z,8.07
2022-10-18T04:59:32.919Z,7.90
2022-10-18T05:01:59.833Z,7.87
2022-10-18T05:04:26.858Z,7.86
2022-10-18T05:06:53.623Z,7.80
2022-10-18T05:09:24.516Z,7.80
2022-10-18T05:11:51.364Z,7.90
2022-10-18T05:14:18.334Z,7.79
2022-10-18T05:16:45.093Z,7.76
2022-10-18T05:19:12.156Z,7.81
2022-10-18T05:21:38.887Z,7.77
2022-10-18T05:24:06.134Z,7.71
2022-10-18T05:26:33.081Z,7.70
2022-10-18T05:29:00.147Z,7.83
2022-10-18T05:31:27.012Z,7.78
2022-10-18T05:33:53.922Z,7.74
2022-10-18T05:36:20.755Z,7.70
2022-10-18T05:38:48.424Z,7.94
2022-10-18T05:41:15.168Z,7.93
2022-10-18T05:43:42.086Z,8.04
2022-10-18T05:46:14.763Z,7.96
2022-10-18T05:48:44.320Z,7.96
2022-10-18T05:51:11.343Z,7.91
2022-10-18T05:53:38.491Z,7.95
2022-10-18T05:56:06.700Z,8.05
2022-10-18T05:58:34.107Z,8.06
2022-10-18T06:01:05.475Z,8.11
2022-10-18T06:03:33.326Z,8.16
2022-10-18T06:06:00.791Z,8.25
2022-10-18T06:08:27.862Z,8.29
2022-10-18T06:10:54.742Z,8.33
2022-10-18T06:13:21.714Z,8.45
2022-10-18T06:15:48.475Z,8.56
2022-10-18T06:18:15.600Z,8.58
2022-10-18T06:20:42.380Z,8.66
2022-10-18T06:23:09.335Z,8.78
2022-10-18T06:25:36.303Z,8.85
2022-10-18T06:28:07.830Z,9.00
2022-10-18T06:30:37.138Z,8.98
2022-10-18T06:33:04.191Z,9.02
2022-10-18T06:35:30.964Z,9.13
2022-10-18T06:37:57.929Z,9.29
2022-10-18T06:40:24.833Z,9.26
2022-10-18T06:43:00.623Z,9.37
2022-10-18T06:45:33.447Z,9.44
2022-10-18T06:48:00.396Z,9.51
2022-10-18T06:50:27.102Z,9.60
2022-10-18T06:52:56.901Z,9.68
2022-10-18T06:55:23.730Z,9.79
2022-10-18T06:57:50.820Z,9.89
2022-10-18T07:00:17.560Z,9.93
2022-10-18T07:02:44.465Z,9.99
2022-10-18T07:05:11.632Z,10.15
2022-10-18T07:07:39.517Z,10.31
2022-10-18T07:10:06.969Z,10.49
2022-10-18T07:12:34.525Z,10.63
2022-10-18T07:15:03.486Z,10.83
2022-10-18T07:17:34.073Z,10.99
2022-10-18T07:20:00.987Z,11.14
2022-10-18T07:22:30.231Z,11.32
2022-10-18T07:24:57.216Z,11.47
2022-10-18T07:27:24.169Z,11.65
2022-10-18T07:29:50.994Z,11.90
2022-10-18T07:32:17.957Z,12.16
2022-10-18T07:34:44.671Z,12.35
2022-10-18T07:37:11.653Z,12.54
2022-10-18T07:39:38.398Z,12.62
2022-10-18T07:42:05.312Z,12.80
2022-10-18T07:44:32.086Z,13.04
2022-10-18T07:46:59.021Z,13.21
2022-10-18T07:49:25.771Z,13.36
2022-10-18T07:51:53.219Z,13.53
2022-10-18T07:54:19.998Z,13.76
2022-10-18T07:56:47.163Z,13.84
2022-10-18T07:59:19.087Z,14.08
2022-10-18T08:01:52.985Z,14.32
2022-10-18T08:04:21.629Z,14.56
2022-10-18T08:06:48.746Z,14.67
2022-10-18T08:09:15.509Z,14.78
2022-10-18T08:11:42.483Z,14.96
2022-10-18T08:14:09.213Z,15.20
2022-10-18T08:16:36.143Z,15.45
2022-10-18T08:19:02.875Z,15.62
2022-10-18T08:21:29.863Z,15.69
2022-10-18T08:23:56.620Z,16.19
2022-10-18T08:26:23.981Z,16.18
2022-10-18T08:28:58.468Z,16.30
2022-10-18T08:31:36.782Z,16.52
2022-10-18T08:34:03.488Z,16.65
2022-10-18T08:36:30.488Z,16.77
2022-10-18T08:38:57.204Z,16.81
2022-10-18T08:41:51.716Z,17.13
2022-10-18T08:44:36.313Z,17.30
2022-10-18T08:47:11.826Z,17.51
2022-10-18T08:49:55.668Z,17.82
2022-10-18T08:55:39.559Z,18.06
2022-10-18T08:58:26.701Z,18.12
2022-10-18T09:01:20.606Z,18.15
2022-10-18T09:04:06.128Z,18.16
2022-10-18T09:06:40.426Z,18.58
2022-10-18T09:09:25.559Z,18.70
2022-10-18T09:12:26.913Z,18.89
2022-10-18T09:15:04.210Z,19.07
2022-10-18T09:17:44.643Z,19.18
2022-10-18T09:20:23.832Z,19.20
2022-10-18T09:23:00.193Z,19.38
2022-10-18T09:25:36.000Z,19.44
2022-10-18T09:28:30.747Z,19.61
2022-10-18T09:31:13.317Z,19.94
2022-10-18T09:33:52.328Z,20.35
2022-10-18T09:36:33.607Z,20.05
2022-10-18T09:39:09.649Z,20.35
2022-10-18T09:41:54.336Z,20.68
2022-10-18T09:44:33.040Z,20.71
2022-10-18T09:47:16.906Z,20.28
2022-10-18T09:49:47.468Z,20.40
2022-10-18T09:52:21.407Z,20.79
2022-10-18T09:54:56.057Z,21.07
2022-10-18T09:57:44.814Z,20.73
2022-10-18T10:00:24.878Z,21.16
2022-10-18T10:02:51.903Z,20.84
2022-10-18T10:05:19.775Z,20.64
2022-10-18T10:07:49.216Z,20.93
2022-10-18T10:10:24.461Z,20.64
2022-10-18T10:13:16.073Z,21.30
2022-10-18T10:15:54.995Z,21.31
2022-10-18T10:18:25.245Z,21.54
2022-10-18T10:20:53.453Z,21.81
2022-10-18T10:23:26.818Z,21.34
2022-10-18T10:26:20.209Z,22.05
2022-10-18T10:28:49.010Z,21.52
2022-10-18T10:31:18.932Z,22.22
2022-10-18T10:33:48.119Z,22.67
2022-10-18T10:36:21.652Z,21.39
2022-10-18T10:39:19.190Z,21.67
2022-10-18T10:41:54.512Z,21.58
2022-10-18T10:44:28.807Z,21.40
2022-10-18T10:46:55.886Z,22.01
2022-10-18T10:49:39.699Z,22.25
2022-10-18T10:52:08.842Z,22.91
2022-10-18T10:54:50.319Z,23.00
2022-10-18T10:57:25.921Z,22.63
2022-10-18T10:59:55.411Z,22.28
2022-10-18T11:02:30.213Z,22.34
2022-10-18T11:05:25.566Z,22.63
2022-10-18T11:07:58.570Z,22.92
2022-10-18T11:10:30.988Z,23.02
2022-10-18T11:13:31.923Z,22.68
2022-10-18T11:16:06.963Z,23.21
2022-10-18T11:18:36.699Z,23.68
2022-10-18T11:21:18.852Z,23.48
2022-10-18T11:23:46.255Z,23.91
2022-10-18T11:26:13.121Z,23.51
2022-10-18T11:29:07.103Z,23.59
2022-10-18T11:31:55.943Z,23.14
2022-10-18T11:34:43.851Z,23.52
2022-10-18T11:37:52.012Z,23.14
2022-10-18T11:40:45.970Z,23.46
2022-10-18T11:43:57.176Z,23.61
2022-10-18T11:46:32.747Z,23.23
2022-10-18T11:49:50.660Z,22.85
2022-10-18T11:52:45.671Z,22.93
2022-10-18T11:55:56.124Z,22.73
2022-10-18T11:59:01.694Z,22.91
2022-10-18T12:02:13.112Z,23.28
2022-10-18T12:04:58.529Z,23.31
2022-10-18T12:07:41.613Z,22.70
2022-10-18T12:10:19.492Z,22.00
2022-10-18T12:13:02.135Z,21.21
2022-10-18T12:15:33.649Z,20.90
2022-10-18T12:18:06.409Z,20.88
2022-10-18T12:20:43.578Z,20.83
2022-10-18T12:23:15.819Z,20.77
2022-10-18T12:25:47.823Z,20.59
2022-10-18T12:28:32.865Z,20.38
2022-10-18T12:31:24.430Z,20.49
2022-10-18T12:33:56.734Z,20.37
2022-10-18T12:36:48.163Z,20.25
2022-10-18T12:39:37.565Z,20.25
2022-10-18T12:42:29.678Z,20.37
2022-10-18T12:45:25.798Z,20.33
2022-10-18T12:47:52.983Z,20.31
2022-10-18T12:50:28.371Z,20.28
2022-10-18T12:53:26.654Z,20.30
2022-10-18T12:55:54.870Z,20.16
2022-10-18T12:58:31.541Z,20.13
2022-10-18T13:01:07.092Z,20.34
2022-10-18T13:03:50.978Z,20.23
2022-10-18T13:06:17.945Z,20.24
2022-10-18T13:08:46.070Z,20.33
2022-10-18T13:11:13.022Z,20.25
2022-10-18T13:14:10.944Z,20.27
2022-10-18T13:16:44.528Z,20.35
2022-10-18T13:19:35.580Z,20.44
2022-10-18T13:22:56.746Z,20.39
2022-10-18T13:25:29.296Z,20.39
2022-10-18T13:28:14.785Z,20.31
2022-10-18T13:30:55.847Z,20.43
2022-10-18T13:33:39.071Z,20.38
2022-10-18T13:36:22.709Z,20.34
2022-10-18T13:38:50.498Z,20.40
2022-10-18T13:41:26.863Z,20.37
2022-10-18T13:44:24.393Z,20.45
2022-10-18T13:46:51.493Z,20.44
2022-10-18T13:49:40.391Z,20.47
2022-10-18T13:52:28.359Z,20.37
2022-10-18T13:55:03.200Z,20.30
2022-10-18T13:57:51.029Z,20.52
2022-10-18T14:00:49.153Z,20.43
2022-10-18T14:03:57.995Z,20.43
2022-10-18T14:06:41.741Z,20.31
2022-10-18T14:09:40.287Z,20.33
2022-10-18T14:12:44.826Z,20.29
2022-10-18T14:15:27.385Z,20.25
2022-10-18T14:18:18.875Z,20.30
2022-10-18T14:21:12.250Z,20.29
2022-10-18T14:23:44.749Z,20.34
2022-10-18T14:26:15.385Z,20.40
2022-10-18T14:28:59.137Z,20.38
2022-10-18T14:31:27.081Z,20.29
2022-10-18T14:33:58.341Z,20.33
2022-10-18T14:36:29.374Z,20.25
2022-10-18T14:38:56.296Z,20.23
2022-10-18T14:41:28.151Z,20.10
2022-10-18T14:44:21.126Z,20.11
2022-10-18T14:46:58.236Z,20.04
2022-10-18T14:49:25.710Z,19.96
2022-10-18T14:51:56.246Z,19.84
2022-10-18T14:54:32.826Z,19.91
2022-10-18T14:57:00.683Z,19.90
2022-10-18T14:59:30.693Z,19.69
2022-10-18T15:02:05.202Z,19.60
2022-10-18T15:04:35.228Z,19.73
2022-10-18T15:07:05.035Z,19.51
2022-10-18T15:09:34.139Z,19.33
2022-10-18T15:12:03.424Z,19.28
2022-10-18T15:14:30.829Z,19.15
2022-10-18T15:17:07.461Z,19.09
2022-10-18T15:19:39.364Z,19.08
2022-10-18T15:25:04.240Z,19.06
2022-10-18T15:27:37.998Z,18.91
2022-10-18T15:30:15.590Z,18.70
2022-10-18T15:32:52.125Z,18.53
2022-10-18T15:35:26.523Z,18.36
2022-10-18T15:37:54.968Z,18.27
2022-10-18T15:40:21.852Z,18.16
2022-10-18T15:42:53.593Z,18.02
2022-10-18T15:45:27.521Z,17.79
2022-10-18T15:48:12.298Z,17.71
2022-10-18T15:50:42.698Z,17.63
2022-10-18T15:53:22.620Z,17.29
2022-10-18T15:56:02.938Z,17.01
2022-10-18T15:58:39.574Z,16.77
2022-10-18T16:01:21.186Z,16.51
2022-10-18T16:03:49.633Z,16.28
2022-10-18T16:06:18.374Z,16.09
2022-10-18T16:08:48.596Z,16.01
2022-10-18T16:11:25.488Z,15.97
2022-10-18T16:13:55.263Z,15.79
2022-10-18T16:16:26.916Z,15.70
2022-10-18T16:18:53.994Z,15.68
2022-10-18T16:21:26.478Z,15.56
2022-10-18T16:23:53.619Z,15.40
2022-10-18T16:26:22.186Z,15.27
2022-10-18T16:28:49.960Z,15.24
2022-10-18T16:31:22.788Z,15.08
2022-10-18T16:33:50.579Z,15.04
2022-10-18T16:36:20.309Z,15.00
2022-10-18T16:38:48.022Z,14.89
2022-10-18T16:41:15.988Z,14.90
2022-10-18T16:43:44.756Z,14.73
2022-10-18T16:46:28.333Z,14.62
2022-10-18T16:48:55.528Z,14.52
2022-10-18T16:51:22.860Z,14.49
2022-10-18T16:53:49.884Z,14.31
2022-10-18T16:56:19.901Z,14.29
2022-10-18T16:58:47.145Z,14.16
2022-10-18T17:01:16.844Z,14.06
2022-10-18T17:03:43.796Z,13.96
2022-10-18T17:06:17.352Z,14.01
2022-10-18T17:08:44.789Z,13.90
2022-10-18T17:11:13.261Z,13.85
2022-10-18T17:13:40.471Z,13.69
2022-10-18T17:16:15.778Z,13.71
2022-10-18T17:18:44.069Z,13.71
2022-10-18T17:21:11.257Z,13.52
2022-10-18T17:23:39.003Z,13.43
2022-10-18T17:26:27.728Z,13.57
2022-10-18T17:29:00.739Z,13.44
2022-10-18T17:31:29.488Z,13.42
2022-10-18T17:33:58.348Z,13.32
2022-10-18T17:36:25.482Z,13.30
2022-10-18T17:38:53.367Z,13.14
2022-10-18T17:41:21.377Z,13.10
2022-10-18T17:43:48.585Z,13.07
2022-10-18T17:46:17.760Z,13.04
2022-10-18T17:48:44.667Z,13.01
2022-10-18T17:51:14.201Z,12.92
2022-10-18T17:53:40.973Z,12.90
2022-10-18T17:56:10.956Z,12.80
2022-10-18T17:58:37.821Z,12.83
2022-10-18T18:01:17.905Z,12.77
2022-10-18T18:03:47.572Z,12.81
2022-10-18T18:06:22.451Z,12.81
2022-10-18T18:08:50.428Z,12.78
2022-10-18T18:11:18.052Z,12.57
2022-10-18T18:13:44.888Z,12.63
2022-10-18T18:16:20.194Z,12.53
2022-10-18T18:18:49.887Z,12.46
2022-10-18T18:21:17.506Z,12.33
2022-10-18T18:23:44.625Z,12.38
2022-10-18T18:26:11.916Z,12.28
2022-10-18T18:28:39.117Z,12.23
2022-10-18T18:31:11.440Z,12.29
2022-10-18T18:33:38.527Z,12.19
2022-10-18T18:36:08.909Z,12.17
2022-10-18T18:38:46.743Z,12.14
2022-10-18T18:41:19.246Z,12.22
2022-10-18T18:43:54.035Z,12.07
2022-10-18T18:46:22.375Z,11.99
2022-10-18T18:48:49.436Z,11.90
2022-10-18T18:51:19.036Z,11.90
2022-10-18T18:53:47.064Z,11.97
2022-10-18T18:58:52.979Z,11.92
2022-10-18T19:01:35.238Z,11.95
2022-10-18T19:04:02.462Z,11.84
2022-10-18T19:06:32.608Z,11.80
2022-10-18T19:09:04.822Z,11.80
2022-10-18T19:11:35.524Z,11.87
2022-10-18T19:14:03.791Z,11.80
2022-10-18T19:16:39.499Z,11.70
2022-10-18T19:19:06.486Z,11.77
2022-10-18T19:21:36.021Z,11.64
2022-10-18T19:24:03.754Z,11.48
2022-10-18T19:26:32.493Z,11.57
2022-10-18T19:29:06.928Z,11.62
2022-10-18T19:31:35.026Z,11.48
2022-10-18T19:34:05.148Z,11.47
2022-10-18T19:36:35.406Z,11.35
2022-10-18T19:39:03.478Z,11.23
2022-10-18T19:41:33.348Z,11.24
2022-10-18T19:44:00.188Z,11.23
2022-10-18T19:46:27.129Z,11.24
2022-10-18T19:48:54.338Z,11.33
2022-10-18T19:51:26.873Z,11.05
2022-10-18T19:53:56.481Z,11.18
2022-10-18T19:56:27.920Z,11.07
2022-10-18T19:58:59.092Z,11.00
2022-10-18T20:01:28.465Z,10.96
2022-10-18T20:03:57.959Z,10.93
2022-10-18T20:06:25.437Z,10.88
2022-10-18T20:08:52.403Z,10.97
2022-10-18T20:11:22.731Z,10.94
2022-10-18T20:13:50.177Z,10.93
2022-10-18T20:16:23.053Z,10.80
2022-10-18T20:19:00.946Z,10.90
2022-10-18T20:21:35.584Z,10.72
2022-10-18T20:24:03.948Z,10.78
2022-10-18T20:26:30.988Z,10.70
2022-10-18T20:28:59.681Z,10.64
2022-10-18T20:31:32.154Z,10.61
2022-10-18T20:34:00.897Z,10.59
2022-10-18T20:36:29.924Z,10.57
2022-10-18T20:38:56.827Z,10.65
2022-10-18T20:41:32.635Z,10.56
2022-10-18T20:44:02.339Z,10.66
2022-10-18T20:46:34.398Z,10.59
2022-10-18T20:49:01.680Z,10.56
2022-10-18T20:51:28.868Z,10.52
2022-10-18T20:53:55.846Z,10.57
2022-10-18T20:56:26.687Z,10.55
2022-10-18T20:58:56.383Z,10.39
2022-10-18T21:01:31.776Z,10.37
2022-10-18T21:04:01.322Z,10.32
2022-10-18T21:06:30.873Z,10.27
2022-10-18T21:09:00.019Z,10.35
2022-10-18T21:11:28.753Z,10.47
2022-10-18T21:13:59.559Z,10.34
2022-10-18T21:16:27.235Z,10.24
2022-10-18T21:18:54.077Z,10.37
2022-10-18T21:21:24.077Z,10.16
2022-10-18T21:23:52.159Z,10.10
2022-10-18T21:26:26.819Z,10.28
2022-10-18T21:28:55.263Z,10.22
2022-10-18T21:31:24.463Z,10.22
2022-10-18T21:33:56.817Z,10.07
2022-10-18T21:36:25.044Z,10.14
2022-10-18T21:38:51.921Z,10.16
2022-10-18T21:41:20.560Z,10.05
2022-10-18T21:43:49.784Z,9.97
2022-10-18T21:46:17.973Z,10.04
2022-10-18T21:48:46.839Z,10.04
2022-10-18T21:51:15.869Z,10.08
2022-10-18T21:53:46.075Z,10.01
2022-10-18T21:56:16.032Z,9.92
2022-10-18T21:58:43.428Z,9.96
2022-10-18T22:01:13.558Z,9.99
2022-10-18T22:03:41.105Z,9.96
2022-10-18T22:06:14.247Z,10.10
2022-10-18T22:08:42.609Z,10.04
2022-10-18T22:11:09.965Z,10.04
2022-10-18T22:13:36.716Z,10.11
2022-10-18T22:16:05.348Z,10.09
2022-10-18T22:18:32.992Z,10.25
2022-10-18T22:21:06.517Z,10.20
2022-10-18T22:23:35.423Z,10.16
2022-10-18T22:26:13.543Z,10.23
2022-10-18T22:28:42.159Z,10.27
2022-10-18T22:31:21.314Z,10.33
2022-10-18T22:33:53.665Z,10.36
2022-10-18T22:36:20.875Z,10.38
2022-10-18T22:38:47.618Z,10.34
2022-10-18T22:41:14.696Z,10.43
2022-10-18T22:43:41.724Z,10.46
2022-10-18T22:46:11.553Z,10.45
2022-10-18T22:48:38.712Z,10.49
2022-10-18T22:51:05.881Z,10.49
2022-10-18T22:53:33.603Z,10.46
2022-10-18T22:56:00.752Z,10.52
2022-10-18T22:58:27.775Z,10.53
2022-10-18T23:01:13.132Z,10.63
2022-10-18T23:03:40.637Z,10.56
2022-10-18T23:06:22.691Z,10.55
2022-10-18T23:08:49.985Z,10.57
2022-10-18T23:11:17.851Z,10.50
2022-10-18T23:13:44.845Z,10.52
2022-10-18T23:16:12.052Z,10.53
2022-10-18T23:21:10.097Z,10.47
2022-10-18T23:23:39.491Z,10.56
2022-10-18T23:26:12.218Z,10.59
2022-10-18T23:28:41.387Z,10.61
2022-10-18T23:31:30.745Z,10.58
2022-10-18T23:34:01.077Z,10.53
2022-10-18T23:36:28.538Z,10.48
2022-10-18T23:38:55.784Z,10.63
2022-10-18T23:41:23.278Z,10.53
2022-10-18T23:43:50.095Z,10.50
2022-10-18T23:46:18.341Z,10.38
2022-10-18T23:48:45.996Z,10.35
2022-10-18T23:51:12.966Z,10.47
2022-10-18T23:53:40.387Z,10.40
2022-10-18T23:56:11.437Z,10.36
2022-10-18T23:58:39.234Z,10.33
